createdAt,value
2018-01-07T00:02:10.555Z,10.10
2018-01-07T00:04:37.286Z,10.40
2018-01-07T00:07:04.025Z,9.90
2018-01-07T00:09:30.777Z,8.87
2018-01-07T00:11:57.495Z,9.10
2018-01-07T00:14:24.270Z,8.10
2018-01-07T00:16:51.094Z,9.97
2018-01-07T00:19:17.825Z,7.40
2018-01-07T00:21:44.564Z,7.00
2018-01-07T00:24:11.321Z,7.43
2018-01-07T00:26:38.076Z,6.77
2018-01-07T00:29:04.807Z,9.43
2018-01-07T00:31:31.533Z,7.90
2018-01-07T00:33:58.271Z,9.07
2018-01-07T00:36:25.027Z,9.37
2018-01-07T00:38:51.753Z,9.00
2018-01-07T00:41:18.488Z,9.60
2018-01-07T00:43:45.236Z,9.00
2018-01-07T00:46:12.051Z,7.97
2018-01-07T00:48:38.816Z,9.27
2018-01-07T00:51:05.576Z,8.03
2018-01-07T00:53:32.332Z,9.00
2018-01-07T00:55:59.064Z,8.83
2018-01-07T00:58:25.794Z,6.80
2018-01-07T01:00:52.522Z,8.27
2018-01-07T01:03:19.268Z,6.93
2018-01-07T01:05:46.015Z,8.10
2018-01-07T01:08:12.757Z,7.10
2018-01-07T01:10:39.495Z,6.70
2018-01-07T01:13:06.228Z,7.43
2018-01-07T01:15:32.967Z,7.57
2018-01-07T01:17:59.723Z,6.93
2018-01-07T01:20:26.459Z,7.00
2018-01-07T01:22:53.180Z,7.00
2018-01-07T01:25:19.903Z,6.23
2018-01-07T01:27:46.682Z,6.90
2018-01-07T01:30:13.458Z,6.63
2018-01-07T01:32:40.176Z,6.93
2018-01-07T01:35:06.935Z,6.60
2018-01-07T01:37:33.655Z,7.43
2018-01-07T01:40:00.382Z,6.40
2018-01-07T01:42:27.148Z,5.53
2018-01-07T01:44:53.880Z,6.37
2018-01-07T01:47:20.608Z,6.37
2018-01-07T01:49:47.382Z,5.37
2018-01-07T01:52:14.090Z,5.50
2018-01-07T01:54:40.818Z,5.77
2018-01-07T01:57:07.556Z,5.90
2018-01-07T01:59:34.282Z,5.50
2018-01-07T02:02:01.040Z,6.33
2018-01-07T02:04:27.781Z,5.37
2018-01-07T02:06:54.563Z,5.23
2018-01-07T02:09:21.306Z,5.37
2018-01-07T02:11:48.043Z,5.40
2018-01-07T02:14:14.759Z,5.10
2018-01-07T02:16:41.510Z,5.30
2018-01-07T02:19:08.269Z,5.00
2018-01-07T02:21:35.015Z,5.03
2018-01-07T02:24:01.747Z,4.60
2018-01-07T02:26:28.474Z,5.03
2018-01-07T02:28:55.204Z,5.13
2018-01-07T02:31:21.941Z,5.10
2018-01-07T02:33:48.677Z,5.20
2018-01-07T02:36:15.432Z,5.37
2018-01-07T02:38:42.151Z,5.50
2018-01-07T02:41:08.905Z,6.07
2018-01-07T02:43:35.642Z,5.97
2018-01-07T02:46:02.376Z,4.97
2018-01-07T02:48:29.154Z,4.70
2018-01-07T02:50:55.888Z,5.70
2018-01-07T02:53:22.600Z,4.60
2018-01-07T02:55:49.474Z,5.00
2018-01-07T02:58:16.182Z,4.13
2018-01-07T03:00:42.903Z,4.77
2018-01-07T03:03:09.634Z,5.77
2018-01-07T03:05:36.343Z,4.97
2018-01-07T03:08:03.068Z,5.13
2018-01-07T03:10:29.810Z,4.80
2018-01-07T03:12:56.534Z,4.70
2018-01-07T03:15:23.290Z,4.87
2018-01-07T03:17:50.019Z,5.20
2018-01-07T03:20:16.728Z,4.63
2018-01-07T03:22:43.476Z,5.30
2018-01-07T03:25:10.256Z,4.80
2018-01-07T03:27:36.980Z,5.17
2018-01-07T03:30:03.735Z,4.40
2018-01-07T03:32:30.473Z,4.63
2018-01-07T03:34:57.211Z,4.40
2018-01-07T03:37:23.937Z,4.80
2018-01-07T03:39:50.654Z,5.03
2018-01-07T03:42:17.392Z,3.83
2018-01-07T03:44:44.178Z,5.00
2018-01-07T03:47:10.917Z,4.97
2018-01-07T03:49:37.656Z,4.77
2018-01-07T03:52:04.390Z,4.80
2018-01-07T03:54:31.140Z,4.33
2018-01-07T03:56:57.932Z,4.03
2018-01-07T03:59:24.751Z,4.80
2018-01-07T04:01:51.514Z,4.50
2018-01-07T04:04:18.225Z,4.50
2018-01-07T04:06:44.963Z,4.47
2018-01-07T04:09:11.696Z,4.20
2018-01-07T04:11:38.411Z,5.43
2018-01-07T04:14:05.142Z,3.67
2018-01-07T04:16:31.882Z,4.30
2018-01-07T04:18:58.604Z,4.10
2018-01-07T04:21:25.345Z,4.23
2018-01-07T04:23:52.130Z,4.47
2018-01-07T04:26:18.872Z,4.87
2018-01-07T04:28:45.619Z,4.40
2018-01-07T04:31:12.365Z,4.73
2018-01-07T04:33:39.096Z,4.27
2018-01-07T04:36:05.822Z,4.83
2018-01-07T04:38:32.583Z,4.00
2018-01-07T04:40:59.321Z,4.77
2018-01-07T04:43:26.932Z,4.30
2018-01-07T04:45:53.670Z,4.63
2018-01-07T04:48:20.397Z,4.47
2018-01-07T04:50:47.278Z,5.37
2018-01-07T04:53:14.007Z,4.23
2018-01-07T04:55:40.751Z,4.50
2018-01-07T04:58:07.470Z,4.50
2018-01-07T05:00:34.238Z,3.90
2018-01-07T05:03:00.957Z,4.20
2018-01-07T05:05:27.676Z,4.00
2018-01-07T05:07:54.405Z,4.30
2018-01-07T05:10:21.128Z,3.60
2018-01-07T05:12:47.836Z,3.80
2018-01-07T05:15:14.579Z,4.60
2018-01-07T05:17:41.298Z,3.70
2018-01-07T05:20:08.026Z,3.83
2018-01-07T05:22:34.775Z,3.93
2018-01-07T05:25:01.481Z,4.10
2018-01-07T05:27:28.191Z,4.77
2018-01-07T05:29:54.947Z,4.43
2018-01-07T05:32:21.661Z,3.90
2018-01-07T05:34:48.408Z,4.30
2018-01-07T05:37:15.153Z,3.90
2018-01-07T05:39:41.884Z,4.60
2018-01-07T05:42:08.614Z,3.97
2018-01-07T05:44:35.375Z,3.70
2018-01-07T05:47:02.086Z,3.50
2018-01-07T05:49:28.799Z,4.27
2018-01-07T05:51:55.632Z,4.50
2018-01-07T05:54:22.341Z,4.70
2018-01-07T05:56:49.052Z,4.00
2018-01-07T05:59:15.807Z,3.67
2018-01-07T06:01:42.527Z,3.60
2018-01-07T06:04:09.307Z,4.50
2018-01-07T06:06:36.074Z,3.93
2018-01-07T06:09:02.825Z,4.33
2018-01-07T06:11:29.545Z,3.63
2018-01-07T06:13:56.267Z,4.80
2018-01-07T06:16:23.023Z,4.37
2018-01-07T06:18:49.740Z,4.30
2018-01-07T06:21:16.475Z,4.57
2018-01-07T06:23:43.207Z,5.70
2018-01-07T06:26:09.935Z,4.40
2018-01-07T06:28:36.682Z,4.53
2018-01-07T06:31:03.403Z,4.30
2018-01-07T06:33:30.126Z,3.80
2018-01-07T06:35:56.868Z,3.90
2018-01-07T06:38:23.584Z,4.20
2018-01-07T06:40:50.301Z,4.50
2018-01-07T06:43:17.037Z,5.00
2018-01-07T06:45:43.765Z,4.50
2018-01-07T06:48:10.512Z,4.97
2018-01-07T06:50:37.237Z,5.37
2018-01-07T06:53:03.981Z,4.67
2018-01-07T06:55:30.703Z,4.37
2018-01-07T06:57:57.694Z,5.07
2018-01-07T07:00:24.498Z,4.77
2018-01-07T07:02:51.245Z,4.10
2018-01-07T07:05:17.987Z,4.70
2018-01-07T07:07:44.718Z,4.47
2018-01-07T07:10:11.754Z,5.00
2018-01-07T07:12:38.521Z,4.87
2018-01-07T07:15:05.268Z,4.40
2018-01-07T07:17:31.999Z,5.47
2018-01-07T07:19:58.753Z,4.80
2018-01-07T07:22:25.473Z,5.10
2018-01-07T07:24:52.222Z,6.40
2018-01-07T07:27:18.947Z,5.63
2018-01-07T07:29:45.669Z,5.77
2018-01-07T07:32:12.382Z,6.07
2018-01-07T07:34:39.112Z,4.77
2018-01-07T07:37:05.859Z,6.60
2018-01-07T07:39:32.604Z,5.33
2018-01-07T07:41:59.343Z,5.60
2018-01-07T07:44:26.053Z,6.47
2018-01-07T07:46:52.788Z,7.57
2018-01-07T07:49:19.548Z,10.30
2018-01-07T07:51:46.289Z,10.80
2018-01-07T07:54:13.007Z,10.10
2018-01-07T07:56:39.748Z,8.57
2018-01-07T07:59:06.493Z,8.50
2018-01-07T08:01:33.246Z,9.60
2018-01-07T08:04:00.099Z,9.33
2018-01-07T08:06:26.951Z,6.40
2018-01-07T08:08:53.689Z,5.80
2018-01-07T08:11:20.488Z,7.53
2018-01-07T08:13:50.736Z,8.13
2018-01-07T08:16:17.445Z,7.97
2018-01-07T08:18:44.217Z,10.20
2018-01-07T08:21:10.946Z,7.67
2018-01-07T08:23:37.667Z,7.27
2018-01-07T08:26:04.403Z,7.40
2018-01-07T08:28:31.157Z,14.93
2018-01-07T08:30:57.862Z,8.53
2018-01-07T08:33:24.617Z,9.17
2018-01-07T08:35:51.363Z,9.00
2018-01-07T08:38:18.085Z,7.90
2018-01-07T08:40:44.835Z,8.37
2018-01-07T08:43:11.555Z,6.80
2018-01-07T08:45:38.254Z,6.70
2018-01-07T08:48:05.019Z,8.90
2018-01-07T08:50:31.742Z,7.30
2018-01-07T08:52:58.490Z,7.83
2018-01-07T08:55:25.218Z,8.20
2018-01-07T08:57:51.988Z,8.10
2018-01-07T09:00:18.727Z,9.40
2018-01-07T09:02:45.491Z,9.60
2018-01-07T09:05:12.242Z,9.83
2018-01-07T09:07:38.959Z,8.60
2018-01-07T09:10:05.694Z,10.57
2018-01-07T09:12:32.420Z,10.57
2018-01-07T09:14:59.137Z,9.33
2018-01-07T09:17:25.847Z,9.33
2018-01-07T09:19:52.556Z,9.40
2018-01-07T09:22:19.287Z,9.00
2018-01-07T09:24:46.021Z,8.30
2018-01-07T09:27:12.774Z,9.17
2018-01-07T09:29:39.501Z,8.50
2018-01-07T09:32:06.246Z,17.13
2018-01-07T09:34:32.967Z,15.33
2018-01-07T09:36:59.677Z,11.10
2018-01-07T09:39:26.422Z,7.50
2018-01-07T09:41:53.142Z,8.43
2018-01-07T09:44:19.859Z,11.57
2018-01-07T09:46:46.594Z,9.30
2018-01-07T09:49:13.318Z,9.50
2018-01-07T09:51:40.066Z,7.80
2018-01-07T09:54:06.789Z,8.10
2018-01-07T09:56:33.530Z,8.50
2018-01-07T09:59:00.265Z,8.43
2018-01-07T10:01:27.025Z,8.43
2018-01-07T10:03:53.758Z,8.63
2018-01-07T10:06:20.470Z,8.30
2018-01-07T10:08:47.185Z,8.27
2018-01-07T10:11:13.926Z,9.90
2018-01-07T10:13:40.631Z,6.90
2018-01-07T10:16:07.373Z,7.40
2018-01-07T10:18:34.099Z,6.97
2018-01-07T10:21:00.824Z,7.57
2018-01-07T10:23:27.583Z,6.70
2018-01-07T10:25:54.302Z,6.50
2018-01-07T10:28:21.019Z,5.90
2018-01-07T10:30:47.763Z,7.00
2018-01-07T10:33:14.497Z,6.93
2018-01-07T10:35:41.203Z,6.30
2018-01-07T10:38:07.935Z,6.73
2018-01-07T10:40:34.661Z,6.73
2018-01-07T10:43:01.433Z,5.60
2018-01-07T10:45:28.164Z,5.40
2018-01-07T10:47:54.902Z,6.27
2018-01-07T10:50:21.610Z,6.13
2018-01-07T10:52:48.333Z,6.43
2018-01-07T10:55:15.099Z,6.17
2018-01-07T10:57:41.811Z,5.40
2018-01-07T11:00:08.561Z,6.10
2018-01-07T11:02:35.278Z,5.90
2018-01-07T11:05:01.986Z,5.60
2018-01-07T11:07:28.736Z,6.10
2018-01-07T11:09:55.476Z,6.50
2018-01-07T11:12:22.218Z,7.40
2018-01-07T11:14:48.951Z,6.90
2018-01-07T11:17:15.706Z,6.13
2018-01-07T11:19:42.433Z,6.73
2018-01-07T11:22:09.174Z,7.07
2018-01-07T11:24:35.893Z,7.57
2018-01-07T11:27:02.606Z,6.70
2018-01-07T11:29:29.339Z,8.23
2018-01-07T11:31:56.063Z,7.30
2018-01-07T11:34:22.795Z,8.73
2018-01-07T11:36:49.523Z,7.77
2018-01-07T11:39:16.253Z,7.67
2018-01-07T11:41:42.971Z,8.00
2018-01-07T11:44:09.706Z,8.47
2018-01-07T11:46:36.429Z,8.53
2018-01-07T11:49:03.127Z,7.30
2018-01-07T11:51:29.865Z,6.50
2018-01-07T11:53:56.604Z,6.37
2018-01-07T11:56:23.362Z,7.33
2018-01-07T11:58:50.080Z,7.20
2018-01-07T12:01:16.808Z,7.03
2018-01-07T12:03:43.561Z,6.70
2018-01-07T12:06:10.288Z,7.17
2018-01-07T12:08:37.064Z,6.63
2018-01-07T12:11:03.778Z,6.67
2018-01-07T12:13:30.520Z,6.40
2018-01-07T12:15:57.234Z,6.70
2018-01-07T12:18:23.945Z,6.77
2018-01-07T12:20:50.686Z,6.77
2018-01-07T12:23:17.401Z,7.57
2018-01-07T12:25:44.124Z,7.23
2018-01-07T12:28:10.877Z,6.90
2018-01-07T12:30:37.591Z,7.70
2018-01-07T12:33:04.298Z,7.83
2018-01-07T12:35:31.034Z,7.63
2018-01-07T12:37:57.759Z,7.63
2018-01-07T12:40:24.483Z,8.10
2018-01-07T12:42:51.232Z,7.00
2018-01-07T12:45:17.951Z,7.40
2018-01-07T12:47:44.692Z,7.50
2018-01-07T12:50:11.409Z,7.63
2018-01-07T12:52:38.121Z,7.17
2018-01-07T12:55:04.860Z,6.83
2018-01-07T12:57:31.597Z,6.80
2018-01-07T12:59:58.301Z,7.67
2018-01-07T13:02:25.043Z,6.60
2018-01-07T13:04:51.760Z,7.67
2018-01-07T13:07:18.467Z,6.00
2018-01-07T13:09:45.184Z,6.43
2018-01-07T13:12:11.916Z,6.50
2018-01-07T13:14:38.635Z,6.70
2018-01-07T13:17:05.368Z,6.63
2018-01-07T13:19:32.092Z,7.00
2018-01-07T13:21:58.841Z,6.63
2018-01-07T13:24:25.572Z,6.40
2018-01-07T13:26:52.319Z,6.00
2018-01-07T13:29:19.055Z,6.60
2018-01-07T13:31:45.772Z,6.53
2018-01-07T13:34:12.483Z,7.00
2018-01-07T13:36:39.207Z,6.33
2018-01-07T13:39:05.947Z,7.83
2018-01-07T13:41:32.680Z,7.03
2018-01-07T13:43:59.427Z,8.57
2018-01-07T13:46:26.142Z,7.63
2018-01-07T13:48:53.011Z,7.43
2018-01-07T13:51:19.743Z,6.87
2018-01-07T13:53:46.485Z,6.90
2018-01-07T13:56:13.219Z,6.50
2018-01-07T13:58:39.969Z,7.10
2018-01-07T14:01:06.708Z,6.80
2018-01-07T14:03:33.429Z,6.77
2018-01-07T14:06:00.166Z,6.33
2018-01-07T14:08:26.871Z,6.40
2018-01-07T14:10:53.623Z,7.00
2018-01-07T14:13:20.351Z,6.60
2018-01-07T14:15:47.060Z,6.93
2018-01-07T14:18:13.796Z,6.87
2018-01-07T14:20:40.530Z,6.37
2018-01-07T14:23:07.270Z,6.17
2018-01-07T14:25:34.015Z,7.23
2018-01-07T14:28:00.727Z,7.57
2018-01-07T14:30:27.467Z,8.20
2018-01-07T14:32:54.212Z,8.60
2018-01-07T14:35:20.947Z,8.33
2018-01-07T14:37:47.838Z,8.10
2018-01-07T14:40:14.567Z,6.93
2018-01-07T14:42:41.336Z,7.73
2018-01-07T14:45:08.065Z,7.50
2018-01-07T14:47:34.798Z,7.27
2018-01-07T14:50:01.525Z,6.57
2018-01-07T14:52:28.239Z,6.80
2018-01-07T14:54:55.019Z,7.50
2018-01-07T14:57:21.731Z,6.57
2018-01-07T14:59:48.479Z,6.37
2018-01-07T15:02:15.248Z,6.27
2018-01-07T15:04:41.978Z,7.90
2018-01-07T15:07:08.720Z,7.03
2018-01-07T15:09:35.456Z,7.10
2018-01-07T15:12:02.181Z,7.87
2018-01-07T15:14:28.919Z,7.40
2018-01-07T15:16:55.648Z,7.80
2018-01-07T15:19:22.374Z,8.43
2018-01-07T15:21:49.105Z,7.87
2018-01-07T15:24:15.825Z,7.50
2018-01-07T15:26:42.581Z,9.23
2018-01-07T15:29:09.301Z,8.23
2018-01-07T15:31:36.058Z,8.70
2018-01-07T15:34:02.793Z,8.03
2018-01-07T15:36:29.516Z,8.50
2018-01-07T15:38:56.250Z,7.80
2018-01-07T15:41:22.967Z,8.73
2018-01-07T15:43:49.715Z,7.73
2018-01-07T15:46:16.459Z,8.70
2018-01-07T15:48:43.235Z,9.30
2018-01-07T15:51:09.975Z,11.07
2018-01-07T15:53:36.723Z,11.43
2018-01-07T15:56:03.497Z,11.60
2018-01-07T15:58:30.231Z,11.43
2018-01-07T16:00:56.987Z,12.17
2018-01-07T16:03:23.816Z,12.30
2018-01-07T16:05:50.616Z,11.57
2018-01-07T16:08:17.347Z,10.80
2018-01-07T16:10:44.078Z,12.77
2018-01-07T16:13:10.818Z,11.50
2018-01-07T16:15:37.583Z,11.40
2018-01-07T16:18:04.316Z,11.70
2018-01-07T16:20:31.063Z,10.13
2018-01-07T16:22:57.881Z,10.37
2018-01-07T16:25:24.651Z,10.80
2018-01-07T16:27:51.409Z,11.90
2018-01-07T16:30:18.202Z,11.40
2018-01-07T16:32:44.948Z,11.90
2018-01-07T16:35:11.696Z,11.00
2018-01-07T16:37:38.433Z,10.27
2018-01-07T16:40:05.248Z,10.10
2018-01-07T16:42:32.022Z,10.20
2018-01-07T16:44:58.766Z,12.90
2018-01-07T16:47:25.515Z,12.57
2018-01-07T16:49:52.284Z,11.83
2018-01-07T16:52:19.011Z,12.37
2018-01-07T16:54:45.750Z,12.50
2018-01-07T16:57:12.480Z,12.60
2018-01-07T16:59:39.248Z,13.07
2018-01-07T17:02:06.003Z,14.77
2018-01-07T17:04:32.761Z,17.57
2018-01-07T17:06:59.513Z,18.73
2018-01-07T17:09:26.246Z,19.70
2018-01-07T17:11:52.993Z,18.73
2018-01-07T17:14:19.740Z,20.87
2018-01-07T17:16:46.478Z,18.67
2018-01-07T17:19:13.911Z,19.33
2018-01-07T17:21:40.740Z,18.30
2018-01-07T17:24:07.507Z,17.70
2018-01-07T17:26:34.293Z,18.27
2018-01-07T17:29:01.146Z,17.33
2018-01-07T17:31:27.905Z,18.27
2018-01-07T17:33:54.741Z,19.50
2018-01-07T17:36:21.538Z,18.87
2018-01-07T17:38:48.332Z,20.93
2018-01-07T17:41:15.150Z,18.33
2018-01-07T17:43:42.015Z,17.90
2018-01-07T17:46:08.764Z,18.70
2018-01-07T17:48:35.549Z,16.60
2018-01-07T17:51:02.367Z,16.87
2018-01-07T17:53:29.161Z,18.17
2018-01-07T17:55:55.992Z,18.53
2018-01-07T17:58:22.855Z,17.40
2018-01-07T18:00:49.718Z,17.60
2018-01-07T18:03:16.522Z,16.40
2018-01-07T18:05:43.354Z,16.13
2018-01-07T18:08:10.291Z,16.50
2018-01-07T18:10:37.068Z,16.53
2018-01-07T18:13:03.850Z,16.23
2018-01-07T18:15:30.575Z,16.70
2018-01-07T18:17:57.667Z,16.03
2018-01-07T18:20:24.542Z,17.23
2018-01-07T18:22:51.314Z,14.17
2018-01-07T18:25:18.065Z,15.50
2018-01-07T18:27:44.924Z,13.57
2018-01-07T18:30:12.097Z,15.73
2018-01-07T18:32:39.154Z,15.07
2018-01-07T18:35:06.335Z,17.33
2018-01-07T18:37:33.747Z,17.30
2018-01-07T18:40:00.520Z,14.80
2018-01-07T18:42:27.384Z,14.10
2018-01-07T18:44:54.143Z,16.10
2018-01-07T18:47:20.905Z,15.73
2018-01-07T18:49:47.656Z,16.80
2018-01-07T18:52:14.394Z,15.77
2018-01-07T18:54:41.163Z,16.07
2018-01-07T18:57:07.911Z,16.73
2018-01-07T18:59:34.649Z,15.87
2018-01-07T19:02:01.429Z,16.30
2018-01-07T19:04:28.230Z,16.77
2018-01-07T19:06:54.973Z,17.63
2018-01-07T19:09:21.714Z,17.00
2018-01-07T19:11:48.512Z,16.80
2018-01-07T19:14:15.293Z,17.43
2018-01-07T19:16:42.053Z,15.77
2018-01-07T19:19:08.836Z,16.23
2018-01-07T19:21:35.618Z,17.90
2018-01-07T19:24:02.353Z,17.70
2018-01-07T19:26:29.146Z,16.10
2018-01-07T19:28:55.889Z,18.63
2018-01-07T19:31:22.671Z,17.70
2018-01-07T19:33:49.541Z,16.87
2018-01-07T19:36:16.377Z,18.30
2018-01-07T19:38:43.323Z,18.83
2018-01-07T19:41:10.742Z,20.80
2018-01-07T19:43:37.789Z,18.13
2018-01-07T19:46:04.815Z,18.00
2018-01-07T19:48:31.913Z,19.60
2018-01-07T19:50:58.701Z,19.37
2018-01-07T19:53:25.452Z,21.07
2018-01-07T19:55:52.526Z,22.90
2018-01-07T19:58:19.335Z,22.63
2018-01-07T20:00:46.348Z,19.13
2018-01-07T20:03:13.241Z,22.40
2018-01-07T20:05:39.997Z,22.10
2018-01-07T20:08:06.764Z,22.00
2018-01-07T20:10:33.777Z,20.90
2018-01-07T20:13:00.568Z,21.83
2018-01-07T20:15:27.634Z,22.73
2018-01-07T20:17:54.758Z,23.80
2018-01-07T20:20:21.576Z,24.80
2018-01-07T20:22:48.584Z,25.57
2018-01-07T20:25:15.435Z,25.90
2018-01-07T20:27:59.814Z,26.70
2018-01-07T20:30:44.729Z,24.70
2018-01-07T20:33:11.507Z,24.93
2018-01-07T20:35:38.307Z,23.70
2018-01-07T20:38:05.050Z,23.40
2018-01-07T20:40:31.826Z,22.63
2018-01-07T20:42:58.585Z,21.60
2018-01-07T20:45:25.346Z,21.37
2018-01-07T20:47:52.586Z,19.90
2018-01-07T20:50:19.471Z,20.63
2018-01-07T20:52:46.267Z,21.30
2018-01-07T20:55:13.027Z,22.40
2018-01-07T20:57:39.804Z,22.00
2018-01-07T21:00:06.609Z,27.23
2018-01-07T21:02:33.375Z,27.40
2018-01-07T21:05:00.121Z,25.33
2018-01-07T21:07:26.891Z,26.67
2018-01-07T21:09:53.644Z,27.60
2018-01-07T21:12:20.367Z,27.37
2018-01-07T21:14:47.133Z,25.47
2018-01-07T21:17:13.965Z,28.87
2018-01-07T21:19:40.725Z,27.80
2018-01-07T21:22:07.528Z,27.73
2018-01-07T21:24:34.297Z,28.80
2018-01-07T21:27:01.501Z,29.27
2018-01-07T21:29:28.253Z,28.77
2018-01-07T21:31:55.041Z,29.20
2018-01-07T21:34:21.858Z,25.50
2018-01-07T21:36:49.131Z,29.00
2018-01-07T21:39:15.870Z,25.40
2018-01-07T21:41:42.625Z,27.63
2018-01-07T21:44:09.900Z,26.90
2018-01-07T21:46:36.622Z,26.90
2018-01-07T21:49:03.553Z,29.97
2018-01-07T21:51:30.305Z,30.17
2018-01-07T21:53:57.070Z,27.57
2018-01-07T21:56:23.819Z,28.20
2018-01-07T21:58:50.574Z,30.00
2018-01-07T22:01:23.247Z,24.10
2018-01-07T22:04:00.013Z,26.10
2018-01-07T22:06:32.731Z,25.60
2018-01-07T22:08:59.494Z,24.47
2018-01-07T22:11:26.286Z,25.27
2018-01-07T22:13:53.022Z,27.53
2018-01-07T22:16:19.762Z,26.57
2018-01-07T22:18:46.517Z,27.23
2018-01-07T22:21:13.251Z,28.30
2018-01-07T22:23:40.022Z,30.20
2018-01-07T22:26:06.772Z,28.97
2018-01-07T22:28:33.532Z,28.57
2018-01-07T22:31:00.263Z,29.07
2018-01-07T22:33:27.010Z,29.73
2018-01-07T22:35:53.748Z,28.30
2018-01-07T22:38:20.485Z,26.50
2018-01-07T22:40:47.230Z,27.07
2018-01-07T22:43:13.973Z,26.57
2018-01-07T22:45:40.715Z,26.17
2018-01-07T22:48:09.459Z,26.10
2018-01-07T22:50:36.173Z,25.73
2018-01-07T22:53:02.909Z,25.43
2018-01-07T22:55:29.686Z,25.63
2018-01-07T22:57:56.419Z,25.50
2018-01-07T23:00:23.150Z,25.90
2018-01-07T23:02:49.905Z,26.47
2018-01-07T23:05:16.628Z,25.33
2018-01-07T23:07:43.365Z,27.77
2018-01-07T23:10:10.113Z,25.23
2018-01-07T23:12:36.906Z,25.77
2018-01-07T23:15:03.654Z,25.23
2018-01-07T23:17:30.391Z,27.40
2018-01-07T23:19:57.115Z,27.93
2018-01-07T23:22:23.841Z,26.60
2018-01-07T23:24:50.619Z,23.63
2018-01-07T23:27:17.354Z,24.73
2018-01-07T23:29:44.085Z,25.53
2018-01-07T23:32:10.833Z,28.20
2018-01-07T23:34:37.577Z,28.17
2018-01-07T23:37:04.329Z,26.83
2018-01-07T23:39:31.077Z,24.23
2018-01-07T23:41:57.803Z,26.57
2018-01-07T23:44:24.615Z,25.00
2018-01-07T23:46:51.355Z,25.03
2018-01-07T23:49:18.085Z,26.87
2018-01-07T23:51:44.799Z,24.00
2018-01-07T23:54:11.560Z,23.83
2018-01-07T23:56:38.277Z,23.77
2018-01-07T23:59:04.990Z,24.70
